sensor_id;sensor_type;location;lat;lon;timestamp;P1;durP1;ratioP1;P2;durP2;ratioP2
7211;SDS011;3647;48.792;9.802;2023-05-10T04:29:29;0.87;;;0.87;;
7211;SDS011;3647;48.792;9.802;2023-05-10T04:31:56;0.80;;;0.80;;
7211;SDS011;3647;48.792;9.802;2023-05-10T04:34:23;1.07;;;1.00;;
7211;SDS011;3647;48.792;9.802;2023-05-10T04:36:50;0.90;;;0.90;;
7211;SDS011;3647;48.792;9.802;2023-05-10T04:39:17;0.80;;;0.80;;
7211;SDS011;3647;48.792;9.802;2023-05-10T04:41:43;0.90;;;0.90;;
7211;SDS011;3647;48.792;9.802;2023-05-10T04:44:10;0.90;;;0.90;;
7211;SDS011;3647;48.792;9.802;2023-05-10T04:46:38;0.90;;;0.90;;
7211;SDS011;3647;48.792;9.802;2023-05-10T04:49:05;0.82;;;0.82;;
7211;SDS011;3647;48.792;9.802;2023-05-10T04:51:32;0.80;;;0.80;;
7211;SDS011;3647;48.792;9.802;2023-05-10T04:53:59;1.87;;;0.80;;
7211;SDS011;3647;48.792;9.802;2023-05-10T04:56:25;2.30;;;0.90;;
7211;SDS011;3647;48.792;9.802;2023-05-10T04:58:52;0.90;;;0.90;;
7211;SDS011;3647;48.792;9.802;2023-05-10T05:01:19;1.10;;;1.00;;
7211;SDS011;3647;48.792;9.802;2023-05-10T05:03:49;1.00;;;1.00;;
7211;SDS011;3647;48.792;9.802;2023-05-10T05:06:17;1.43;;;1.33;;
7211;SDS011;3647;48.792;9.802;2023-05-10T05:08:45;1.10;;;1.10;;
7211;SDS011;3647;48.792;9.802;2023-05-10T05:11:14;1.00;;;1.00;;
7211;SDS011;3647;48.792;9.802;2023-05-10T05:13:41;1.00;;;1.00;;
7211;SDS011;3647;48.792;9.802;2023-05-10T05:16:08;1.00;;;1.00;;
7211;SDS011;3647;48.792;9.802;2023-05-10T05:18:35;2.25;;;1.63;;
7211;SDS011;3647;48.792;9.802;2023-05-10T05:21:12;1.35;;;1.30;;
7211;SDS011;3647;48.792;9.802;2023-05-10T05:23:39;1.00;;;0.90;;
7211;SDS011;3647;48.792;9.802;2023-05-10T05:26:06;1.30;;;1.20;;
7211;SDS011;3647;48.792;9.802;2023-05-10T05:28:33;1.55;;;1.30;;
7211;SDS011;3647;48.792;9.802;2023-05-10T05:31:02;1.10;;;1.10;;
7211;SDS011;3647;48.792;9.802;2023-05-10T05:33:29;0.95;;;0.95;;
7211;SDS011;3647;48.792;9.802;2023-05-10T05:35:55;1.10;;;1.10;;
7211;SDS011;3647;48.792;9.802;2023-05-10T05:38:24;1.17;;;1.10;;
7211;SDS011;3647;48.792;9.802;2023-05-10T05:40:51;1.13;;;1.10;;
7211;SDS011;3647;48.792;9.802;2023-05-10T05:43:17;0.90;;;0.90;;
7211;SDS011;3647;48.792;9.802;2023-05-10T05:45:44;1.10;;;1.10;;
7211;SDS011;3647;48.792;9.802;2023-05-10T05:48:11;1.90;;;1.80;;
7211;SDS011;3647;48.792;9.802;2023-05-10T05:50:38;2.60;;;2.40;;
7211;SDS011;3647;48.792;9.802;2023-05-10T05:53:05;1.50;;;1.40;;
7211;SDS011;3647;48.792;9.802;2023-05-10T05:55:33;0.98;;;0.98;;
7211;SDS011;3647;48.792;9.802;2023-05-10T05:58:00;1.00;;;1.00;;
7211;SDS011;3647;48.792;9.802;2023-05-10T06:00:27;1.20;;;1.10;;
7211;SDS011;3647;48.792;9.802;2023-05-10T06:02:54;1.05;;;1.02;;
7211;SDS011;3647;48.792;9.802;2023-05-10T06:05:21;1.33;;;1.23;;
7211;SDS011;3647;48.792;9.802;2023-05-10T06:07:48;1.30;;;1.20;;
7211;SDS011;3647;48.792;9.802;2023-05-10T06:10:15;1.17;;;1.10;;
7211;SDS011;3647;48.792;9.802;2023-05-10T06:12:43;1.20;;;1.10;;
7211;SDS011;3647;48.792;9.802;2023-05-10T06:15:10;1.08;;;0.98;;
7211;SDS011;3647;48.792;9.802;2023-05-10T06:17:37;1.58;;;1.10;;
7211;SDS011;3647;48.792;9.802;2023-05-10T06:20:05;1.05;;;1.05;;
7211;SDS011;3647;48.792;9.802;2023-05-10T06:22:33;1.02;;;1.00;;
7211;SDS011;3647;48.792;9.802;2023-05-10T06:25:00;1.08;;;1.00;;
7211;SDS011;3647;48.792;9.802;2023-05-10T06:27:27;1.75;;;0.95;;
7211;SDS011;3647;48.792;9.802;2023-05-10T06:29:55;1.00;;;1.00;;
7211;SDS011;3647;48.792;9.802;2023-05-10T06:32:22;0.90;;;0.90;;
7211;SDS011;3647;48.792;9.802;2023-05-10T06:34:48;1.25;;;1.15;;
7211;SDS011;3647;48.792;9.802;2023-05-10T06:37:15;1.27;;;1.17;;
7211;SDS011;3647;48.792;9.802;2023-05-10T06:39:42;0.95;;;0.95;;
7211;SDS011;3647;48.792;9.802;2023-05-10T06:42:09;1.10;;;1.10;;
7211;SDS011;3647;48.792;9.802;2023-05-10T06:44:36;1.00;;;1.00;;
7211;SDS011;3647;48.792;9.802;2023-05-10T06:47:04;1.40;;;1.30;;
7211;SDS011;3647;48.792;9.802;2023-05-10T06:49:31;1.88;;;1.10;;
7211;SDS011;3647;48.792;9.802;2023-05-10T06:51:58;1.40;;;1.30;;
7211;SDS011;3647;48.792;9.802;2023-05-10T06:54:24;1.42;;;1.30;;
7211;SDS011;3647;48.792;9.802;2023-05-10T06:56:51;0.95;;;0.95;;
7211;SDS011;3647;48.792;9.802;2023-05-10T06:59:18;1.17;;;1.00;;
7211;SDS011;3647;48.792;9.802;2023-05-10T07:01:46;1.55;;;1.35;;
7211;SDS011;3647;48.792;9.802;2023-05-10T07:04:14;2.58;;;1.23;;
7211;SDS011;3647;48.792;9.802;2023-05-10T07:06:42;1.20;;;1.20;;
7211;SDS011;3647;48.792;9.802;2023-05-10T07:09:11;1.20;;;1.20;;
7211;SDS011;3647;48.792;9.802;2023-05-10T07:11:38;1.15;;;1.05;;
7211;SDS011;3647;48.792;9.802;2023-05-10T07:14:05;1.17;;;1.10;;
7211;SDS011;3647;48.792;9.802;2023-05-10T07:16:32;0.90;;;0.90;;
7211;SDS011;3647;48.792;9.802;2023-05-10T07:18:59;1.00;;;1.00;;
7211;SDS011;3647;48.792;9.802;2023-05-10T07:21:28;1.02;;;1.02;;
7211;SDS011;3647;48.792;9.802;2023-05-10T07:23:56;1.00;;;1.00;;
7211;SDS011;3647;48.792;9.802;2023-05-10T07:26:22;1.77;;;1.10;;
7211;SDS011;3647;48.792;9.802;2023-05-10T07:28:50;1.23;;;1.15;;
7211;SDS011;3647;48.792;9.802;2023-05-10T07:31:17;3.20;;;1.20;;
7211;SDS011;3647;48.792;9.802;2023-05-10T07:33:44;1.40;;;1.30;;
7211;SDS011;3647;48.792;9.802;2023-05-10T07:36:11;1.40;;;1.30;;
7211;SDS011;3647;48.792;9.802;2023-05-10T07:38:39;1.60;;;1.20;;
7211;SDS011;3647;48.792;9.802;2023-05-10T07:41:06;1.05;;;1.02;;
7211;SDS011;3647;48.792;9.802;2023-05-10T07:43:33;1.30;;;1.20;;
7211;SDS011;3647;48.792;9.802;2023-05-10T07:45:59;2.38;;;1.30;;
7211;SDS011;3647;48.792;9.802;2023-05-10T07:48:26;2.40;;;1.50;;
7211;SDS011;3647;48.792;9.802;2023-05-10T07:50:53;1.40;;;1.30;;
7211;SDS011;3647;48.792;9.802;2023-05-10T07:53:20;1.88;;;1.35;;
7211;SDS011;3647;48.792;9.802;2023-05-10T07:55:51;1.60;;;1.50;;
7211;SDS011;3647;48.792;9.802;2023-05-10T07:58:20;1.60;;;1.50;;
7211;SDS011;3647;48.792;9.802;2023-05-10T08:00:47;1.40;;;1.30;;
7211;SDS011;3647;48.792;9.802;2023-05-10T08:03:14;3.75;;;3.28;;
7211;SDS011;3647;48.792;9.802;2023-05-10T08:05:41;1.60;;;1.50;;
7211;SDS011;3647;48.792;9.802;2023-05-10T08:08:07;2.53;;;1.38;;
7211;SDS011;3647;48.792;9.802;2023-05-10T08:10:35;1.63;;;1.53;;
7211;SDS011;3647;48.792;9.802;2023-05-10T08:13:03;1.73;;;1.30;;
7211;SDS011;3647;48.792;9.802;2023-05-10T08:15:29;1.77;;;1.67;;
7211;SDS011;3647;48.792;9.802;2023-05-10T08:17:56;1.60;;;1.50;;
7211;SDS011;3647;48.792;9.802;2023-05-10T08:20:23;2.78;;;1.70;;
7211;SDS011;3647;48.792;9.802;2023-05-10T08:22:50;1.42;;;1.15;;
7211;SDS011;3647;48.792;9.802;2023-05-10T08:25:17;1.35;;;1.30;;
7211;SDS011;3647;48.792;9.802;2023-05-10T08:27:43;1.10;;;1.00;;
7211;SDS011;3647;48.792;9.802;2023-05-10T08:30:12;1.20;;;1.15;;
7211;SDS011;3647;48.792;9.802;2023-05-10T08:32:39;1.00;;;1.00;;
7211;SDS011;3647;48.792;9.802;2023-05-10T08:35:06;1.05;;;1.05;;
7211;SDS011;3647;48.792;9.802;2023-05-10T08:37:33;1.35;;;1.25;;
7211;SDS011;3647;48.792;9.802;2023-05-10T08:39:59;1.10;;;1.10;;
7211;SDS011;3647;48.792;9.802;2023-05-10T08:42:27;1.25;;;1.20;;
7211;SDS011;3647;48.792;9.802;2023-05-10T08:44:57;1.20;;;1.10;;
7211;SDS011;3647;48.792;9.802;2023-05-10T08:47:27;1.23;;;1.13;;
7211;SDS011;3647;48.792;9.802;2023-05-10T08:49:53;1.50;;;1.40;;
7211;SDS011;3647;48.792;9.802;2023-05-10T08:52:21;1.20;;;1.00;;
7211;SDS011;3647;48.792;9.802;2023-05-10T08:54:51;1.17;;;1.08;;
7211;SDS011;3647;48.792;9.802;2023-05-10T08:57:18;1.00;;;1.00;;
7211;SDS011;3647;48.792;9.802;2023-05-10T08:59:45;1.08;;;0.98;;
7211;SDS011;3647;48.792;9.802;2023-05-10T09:02:12;2.10;;;1.10;;
7211;SDS011;3647;48.792;9.802;2023-05-10T09:04:41;2.42;;;1.08;;
7211;SDS011;3647;48.792;9.802;2023-05-10T09:07:07;0.90;;;0.90;;
7211;SDS011;3647;48.792;9.802;2023-05-10T09:09:34;0.90;;;0.73;;
7211;SDS011;3647;48.792;9.802;2023-05-10T09:12:02;1.02;;;1.00;;
7211;SDS011;3647;48.792;9.802;2023-05-10T09:14:29;1.17;;;1.17;;
7211;SDS011;3647;48.792;9.802;2023-05-10T09:17:00;1.05;;;0.95;;
7211;SDS011;3647;48.792;9.802;2023-05-10T09:19:27;0.88;;;0.88;;
7211;SDS011;3647;48.792;9.802;2023-05-10T09:21:55;1.00;;;1.00;;
7211;SDS011;3647;48.792;9.802;2023-05-10T09:24:24;0.98;;;0.98;;
7211;SDS011;3647;48.792;9.802;2023-05-10T09:26:52;0.95;;;0.93;;
7211;SDS011;3647;48.792;9.802;2023-05-10T09:29:18;1.10;;;1.00;;
7211;SDS011;3647;48.792;9.802;2023-05-10T09:31:46;1.20;;;1.10;;
7211;SDS011;3647;48.792;9.802;2023-05-10T09:34:16;1.67;;;1.10;;
7211;SDS011;3647;48.792;9.802;2023-05-10T09:36:53;1.30;;;1.20;;
7211;SDS011;3647;48.792;9.802;2023-05-10T09:39:31;0.98;;;0.98;;
7211;SDS011;3647;48.792;9.802;2023-05-10T09:41:59;1.20;;;1.10;;
7211;SDS011;3647;48.792;9.802;2023-05-10T09:44:29;2.15;;;2.03;;
7211;SDS011;3647;48.792;9.802;2023-05-10T09:46:58;1.20;;;1.10;;
7211;SDS011;3647;48.792;9.802;2023-05-10T09:49:25;1.08;;;0.98;;
7211;SDS011;3647;48.792;9.802;2023-05-10T09:52:02;1.38;;;1.10;;
7211;SDS011;3647;48.792;9.802;2023-05-10T09:54:30;0.90;;;0.90;;
7211;SDS011;3647;48.792;9.802;2023-05-10T09:56:57;2.42;;;1.60;;
7211;SDS011;3647;48.792;9.802;2023-05-10T09:59:25;1.33;;;1.13;;
7211;SDS011;3647;48.792;9.802;2023-05-10T10:01:52;1.58;;;1.10;;
7211;SDS011;3647;48.792;9.802;2023-05-10T10:04:21;1.67;;;0.93;;
7211;SDS011;3647;48.792;9.802;2023-05-10T10:06:58;1.10;;;1.10;;
7211;SDS011;3647;48.792;9.802;2023-05-10T10:09:27;1.45;;;1.25;;
7211;SDS011;3647;48.792;9.802;2023-05-10T10:11:54;0.93;;;0.93;;
7211;SDS011;3647;48.792;9.802;2023-05-10T10:14:21;1.00;;;1.00;;
7211;SDS011;3647;48.792;9.802;2023-05-10T10:16:49;0.90;;;0.90;;
7211;SDS011;3647;48.792;9.802;2023-05-10T10:19:16;1.38;;;1.20;;
7211;SDS011;3647;48.792;9.802;2023-05-10T10:21:44;0.95;;;0.95;;
7211;SDS011;3647;48.792;9.802;2023-05-10T10:24:10;1.90;;;1.35;;
7211;SDS011;3647;48.792;9.802;2023-05-10T10:26:39;1.63;;;1.05;;
7211;SDS011;3647;48.792;9.802;2023-05-10T10:29:10;1.33;;;1.23;;
7211;SDS011;3647;48.792;9.802;2023-05-10T10:31:46;0.95;;;0.95;;
7211;SDS011;3647;48.792;9.802;2023-05-10T10:34:22;1.08;;;0.98;;
7211;SDS011;3647;48.792;9.802;2023-05-10T10:36:52;2.35;;;1.10;;
7211;SDS011;3647;48.792;9.802;2023-05-10T10:39:21;1.10;;;1.10;;
7211;SDS011;3647;48.792;9.802;2023-05-10T10:41:51;2.08;;;1.10;;
7211;SDS011;3647;48.792;9.802;2023-05-10T10:44:22;0.73;;;0.73;;
7211;SDS011;3647;48.792;9.802;2023-05-10T10:47:03;0.80;;;0.80;;
7211;SDS011;3647;48.792;9.802;2023-05-10T10:49:36;0.95;;;0.93;;
7211;SDS011;3647;48.792;9.802;2023-05-10T10:52:14;0.77;;;0.77;;
7211;SDS011;3647;48.792;9.802;2023-05-10T10:54:51;1.30;;;1.13;;
7211;SDS011;3647;48.792;9.802;2023-05-10T10:57:21;0.90;;;0.90;;
7211;SDS011;3647;48.792;9.802;2023-05-10T10:59:48;1.00;;;0.90;;
7211;SDS011;3647;48.792;9.802;2023-05-10T11:02:34;0.85;;;0.80;;
7211;SDS011;3647;48.792;9.802;2023-05-10T11:05:23;2.05;;;1.08;;
7211;SDS011;3647;48.792;9.802;2023-05-10T11:08:07;0.80;;;0.80;;
7211;SDS011;3647;48.792;9.802;2023-05-10T11:10:35;0.80;;;0.80;;
7211;SDS011;3647;48.792;9.802;2023-05-10T11:13:04;1.73;;;0.88;;
7211;SDS011;3647;48.792;9.802;2023-05-10T11:15:33;1.42;;;1.17;;
7211;SDS011;3647;48.792;9.802;2023-05-10T11:18:16;1.13;;;0.93;;
7211;SDS011;3647;48.792;9.802;2023-05-10T11:20:44;1.25;;;0.90;;
7211;SDS011;3647;48.792;9.802;2023-05-10T11:23:16;0.80;;;0.80;;
7211;SDS011;3647;48.792;9.802;2023-05-10T11:25:43;0.80;;;0.80;;
7211;SDS011;3647;48.792;9.802;2023-05-10T11:28:12;2.60;;;1.10;;
7211;SDS011;3647;48.792;9.802;2023-05-10T11:30:39;0.90;;;0.90;;
7211;SDS011;3647;48.792;9.802;2023-05-10T11:33:06;1.02;;;0.85;;
7211;SDS011;3647;48.792;9.802;2023-05-10T11:35:37;0.85;;;0.85;;
7211;SDS011;3647;48.792;9.802;2023-05-10T11:38:05;0.90;;;0.90;;
7211;SDS011;3647;48.792;9.802;2023-05-10T11:40:32;1.67;;;0.82;;
7211;SDS011;3647;48.792;9.802;2023-05-10T11:42:59;1.52;;;1.05;;
7211;SDS011;3647;48.792;9.802;2023-05-10T11:45:28;2.78;;;0.88;;
7211;SDS011;3647;48.792;9.802;2023-05-10T11:47:56;1.38;;;0.80;;
7211;SDS011;3647;48.792;9.802;2023-05-10T11:50:24;0.85;;;0.85;;
7211;SDS011;3647;48.792;9.802;2023-05-10T11:52:52;2.47;;;0.90;;
7211;SDS011;3647;48.792;9.802;2023-05-10T11:55:19;0.90;;;0.90;;
7211;SDS011;3647;48.792;9.802;2023-05-10T11:57:46;0.80;;;0.80;;
7211;SDS011;3647;48.792;9.802;2023-05-10T12:00:13;1.25;;;1.15;;
7211;SDS011;3647;48.792;9.802;2023-05-10T12:02:42;0.82;;;0.82;;
7211;SDS011;3647;48.792;9.802;2023-05-10T12:05:09;0.82;;;0.80;;
7211;SDS011;3647;48.792;9.802;2023-05-10T12:07:36;0.70;;;0.70;;
7211;SDS011;3647;48.792;9.802;2023-05-10T12:10:04;1.05;;;1.00;;
7211;SDS011;3647;48.792;9.802;2023-05-10T12:12:37;0.80;;;0.80;;
7211;SDS011;3647;48.792;9.802;2023-05-10T12:15:05;1.08;;;0.90;;
7211;SDS011;3647;48.792;9.802;2023-05-10T12:17:37;1.13;;;1.00;;
7211;SDS011;3647;48.792;9.802;2023-05-10T12:20:15;0.77;;;0.77;;
7211;SDS011;3647;48.792;9.802;2023-05-10T12:22:46;2.70;;;1.08;;
7211;SDS011;3647;48.792;9.802;2023-05-10T12:25:15;1.05;;;0.95;;
7211;SDS011;3647;48.792;9.802;2023-05-10T12:27:47;1.13;;;0.90;;
7211;SDS011;3647;48.792;9.802;2023-05-10T12:30:18;0.90;;;0.90;;
7211;SDS011;3647;48.792;9.802;2023-05-10T12:32:46;1.10;;;1.00;;
7211;SDS011;3647;48.792;9.802;2023-05-10T12:35:14;1.02;;;1.02;;
7211;SDS011;3647;48.792;9.802;2023-05-10T12:37:42;1.05;;;1.00;;
7211;SDS011;3647;48.792;9.802;2023-05-10T12:40:09;0.88;;;0.88;;
7211;SDS011;3647;48.792;9.802;2023-05-10T12:42:38;0.93;;;0.93;;
7211;SDS011;3647;48.792;9.802;2023-05-10T12:45:06;1.77;;;0.90;;
7211;SDS011;3647;48.792;9.802;2023-05-10T12:47:34;1.10;;;1.00;;
7211;SDS011;3647;48.792;9.802;2023-05-10T12:50:01;1.00;;;1.00;;
7211;SDS011;3647;48.792;9.802;2023-05-10T12:52:30;0.90;;;0.90;;
7211;SDS011;3647;48.792;9.802;2023-05-10T12:54:58;0.82;;;0.82;;
7211;SDS011;3647;48.792;9.802;2023-05-10T12:57:25;1.00;;;0.90;;
7211;SDS011;3647;48.792;9.802;2023-05-10T12:59:52;0.85;;;0.85;;
7211;SDS011;3647;48.792;9.802;2023-05-10T13:02:19;2.08;;;0.80;;
7211;SDS011;3647;48.792;9.802;2023-05-10T13:04:48;0.88;;;0.88;;
7211;SDS011;3647;48.792;9.802;2023-05-10T13:07:15;1.65;;;1.02;;
7211;SDS011;3647;48.792;9.802;2023-05-10T13:09:43;0.80;;;0.80;;
7211;SDS011;3647;48.792;9.802;2023-05-10T13:12:10;0.75;;;0.75;;
7211;SDS011;3647;48.792;9.802;2023-05-10T13:14:36;0.90;;;0.90;;
7211;SDS011;3647;48.792;9.802;2023-05-10T13:17:05;0.93;;;0.80;;
7211;SDS011;3647;48.792;9.802;2023-05-10T13:19:32;1.95;;;1.00;;
7211;SDS011;3647;48.792;9.802;2023-05-10T13:21:59;2.10;;;0.75;;
7211;SDS011;3647;48.792;9.802;2023-05-10T13:24:25;1.08;;;0.90;;
7211;SDS011;3647;48.792;9.802;2023-05-10T13:26:54;0.80;;;0.80;;
7211;SDS011;3647;48.792;9.802;2023-05-10T13:29:20;1.70;;;1.20;;
7211;SDS011;3647;48.792;9.802;2023-05-10T13:31:47;2.28;;;0.80;;
7211;SDS011;3647;48.792;9.802;2023-05-10T13:34:14;0.95;;;0.95;;
7211;SDS011;3647;48.792;9.802;2023-05-10T13:36:41;1.00;;;1.00;;
7211;SDS011;3647;48.792;9.802;2023-05-10T13:39:08;1.17;;;1.08;;
7211;SDS011;3647;48.792;9.802;2023-05-10T13:41:35;1.00;;;1.00;;
7211;SDS011;3647;48.792;9.802;2023-05-10T13:44:03;1.50;;;1.20;;
7211;SDS011;3647;48.792;9.802;2023-05-10T13:46:30;1.15;;;0.90;;
7211;SDS011;3647;48.792;9.802;2023-05-10T13:48:57;1.92;;;1.20;;
7211;SDS011;3647;48.792;9.802;2023-05-10T13:51:24;1.25;;;0.98;;
7211;SDS011;3647;48.792;9.802;2023-05-10T13:53:50;1.30;;;1.20;;
7211;SDS011;3647;48.792;9.802;2023-05-10T13:56:17;0.90;;;0.90;;
7211;SDS011;3647;48.792;9.802;2023-05-10T13:58:44;1.10;;;1.10;;
7211;SDS011;3647;48.792;9.802;2023-05-10T14:01:12;2.53;;;0.95;;
7211;SDS011;3647;48.792;9.802;2023-05-10T14:03:40;1.27;;;1.10;;
7211;SDS011;3647;48.792;9.802;2023-05-10T14:06:07;1.70;;;1.13;;
7211;SDS011;3647;48.792;9.802;2023-05-10T14:08:34;1.00;;;1.00;;
7211;SDS011;3647;48.792;9.802;2023-05-10T14:11:02;2.63;;;1.65;;
7211;SDS011;3647;48.792;9.802;2023-05-10T14:13:29;1.38;;;1.00;;
7211;SDS011;3647;48.792;9.802;2023-05-10T14:15:55;1.00;;;1.00;;
7211;SDS011;3647;48.792;9.802;2023-05-10T14:18:25;1.08;;;1.05;;
7211;SDS011;3647;48.792;9.802;2023-05-10T14:20:51;1.00;;;1.00;;
7211;SDS011;3647;48.792;9.802;2023-05-10T14:23:18;1.30;;;1.20;;
7211;SDS011;3647;48.792;9.802;2023-05-10T14:25:49;2.30;;;1.30;;
7211;SDS011;3647;48.792;9.802;2023-05-10T14:28:15;1.23;;;1.13;;
7211;SDS011;3647;48.792;9.802;2023-05-10T14:30:43;0.90;;;0.90;;
7211;SDS011;3647;48.792;9.802;2023-05-10T14:33:10;1.50;;;1.20;;
7211;SDS011;3647;48.792;9.802;2023-05-10T14:35:38;1.52;;;1.10;;
7211;SDS011;3647;48.792;9.802;2023-05-10T14:38:05;1.33;;;1.23;;
7211;SDS011;3647;48.792;9.802;2023-05-10T14:40:32;1.10;;;1.00;;
7211;SDS011;3647;48.792;9.802;2023-05-10T14:42:59;2.85;;;1.27;;
7211;SDS011;3647;48.792;9.802;2023-05-10T14:45:26;1.17;;;1.10;;
7211;SDS011;3647;48.792;9.802;2023-05-10T14:47:53;1.20;;;1.20;;
7211;SDS011;3647;48.792;9.802;2023-05-10T14:50:19;0.90;;;0.90;;
7211;SDS011;3647;48.792;9.802;2023-05-10T14:52:48;1.27;;;1.10;;
7211;SDS011;3647;48.792;9.802;2023-05-10T14:55:15;1.20;;;1.10;;
7211;SDS011;3647;48.792;9.802;2023-05-10T14:57:42;1.05;;;1.02;;
7211;SDS011;3647;48.792;9.802;2023-05-10T15:00:11;2.33;;;1.45;;
7211;SDS011;3647;48.792;9.802;2023-05-10T15:02:40;2.67;;;1.10;;
7211;SDS011;3647;48.792;9.802;2023-05-10T15:05:07;1.55;;;1.10;;
7211;SDS011;3647;48.792;9.802;2023-05-10T15:07:34;1.27;;;1.08;;
7211;SDS011;3647;48.792;9.802;2023-05-10T15:10:02;2.35;;;1.20;;
7211;SDS011;3647;48.792;9.802;2023-05-10T15:12:30;0.82;;;0.82;;
7211;SDS011;3647;48.792;9.802;2023-05-10T15:14:56;1.15;;;1.00;;
7211;SDS011;3647;48.792;9.802;2023-05-10T15:17:23;1.13;;;0.85;;
7211;SDS011;3647;48.792;9.802;2023-05-10T15:19:50;1.02;;;0.95;;
7211;SDS011;3647;48.792;9.802;2023-05-10T15:22:17;1.75;;;1.10;;
7211;SDS011;3647;48.792;9.802;2023-05-10T15:24:44;1.90;;;1.20;;
7211;SDS011;3647;48.792;9.802;2023-05-10T15:27:12;1.10;;;1.00;;
7211;SDS011;3647;48.792;9.802;2023-05-10T15:29:39;0.90;;;0.90;;
7211;SDS011;3647;48.792;9.802;2023-05-10T15:32:06;1.50;;;1.10;;
7211;SDS011;3647;48.792;9.802;2023-05-10T15:34:33;1.30;;;1.20;;
7211;SDS011;3647;48.792;9.802;2023-05-10T15:37:00;1.27;;;1.17;;
7211;SDS011;3647;48.792;9.802;2023-05-10T15:39:27;2.15;;;1.30;;
7211;SDS011;3647;48.792;9.802;2023-05-10T15:41:54;2.25;;;1.30;;
7211;SDS011;3647;48.792;9.802;2023-05-10T15:44:23;1.10;;;1.00;;
7211;SDS011;3647;48.792;9.802;2023-05-10T15:46:49;1.65;;;1.50;;
7211;SDS011;3647;48.792;9.802;2023-05-10T15:49:16;1.00;;;1.00;;
7211;SDS011;3647;48.792;9.802;2023-05-10T15:51:43;1.70;;;1.60;;
7211;SDS011;3647;48.792;9.802;2023-05-10T15:54:10;2.95;;;1.25;;
7211;SDS011;3647;48.792;9.802;2023-05-10T15:56:37;1.23;;;1.13;;
7211;SDS011;3647;48.792;9.802;2023-05-10T15:59:04;1.52;;;1.25;;
7211;SDS011;3647;48.792;9.802;2023-05-10T16:01:33;1.55;;;1.45;;
7211;SDS011;3647;48.792;9.802;2023-05-10T16:04:00;1.25;;;1.13;;
7211;SDS011;3647;48.792;9.802;2023-05-10T16:06:27;1.13;;;1.00;;
7211;SDS011;3647;48.792;9.802;2023-05-10T16:08:55;2.10;;;1.20;;
7211;SDS011;3647;48.792;9.802;2023-05-10T16:11:22;1.98;;;1.20;;
7211;SDS011;3647;48.792;9.802;2023-05-10T16:13:49;1.50;;;1.40;;
7211;SDS011;3647;48.792;9.802;2023-05-10T16:16:16;1.23;;;1.20;;
7211;SDS011;3647;48.792;9.802;2023-05-10T16:18:45;3.22;;;1.52;;
7211;SDS011;3647;48.792;9.802;2023-05-10T16:21:12;1.42;;;1.10;;
7211;SDS011;3647;48.792;9.802;2023-05-10T16:23:38;1.20;;;1.10;;
7211;SDS011;3647;48.792;9.802;2023-05-10T16:26:05;4.15;;;1.10;;
7211;SDS011;3647;48.792;9.802;2023-05-10T16:28:32;1.13;;;1.02;;
7211;SDS011;3647;48.792;9.802;2023-05-10T16:30:59;1.73;;;1.63;;
7211;SDS011;3647;48.792;9.802;2023-05-10T16:33:26;1.63;;;1.50;;
7211;SDS011;3647;48.792;9.802;2023-05-10T16:35:54;2.08;;;1.58;;
7211;SDS011;3647;48.792;9.802;2023-05-10T16:38:21;1.40;;;1.30;;
7211;SDS011;3647;48.792;9.802;2023-05-10T16:40:48;1.50;;;1.40;;
7211;SDS011;3647;48.792;9.802;2023-05-10T16:43:15;1.70;;;1.50;;
7211;SDS011;3647;48.792;9.802;2023-05-10T16:45:42;2.35;;;1.50;;
7211;SDS011;3647;48.792;9.802;2023-05-10T16:48:08;1.60;;;1.50;;
7211;SDS011;3647;48.792;9.802;2023-05-10T16:50:35;1.77;;;1.45;;
7211;SDS011;3647;48.792;9.802;2023-05-10T16:53:03;1.60;;;1.30;;
7211;SDS011;3647;48.792;9.802;2023-05-10T16:55:30;2.25;;;1.33;;
7211;SDS011;3647;48.792;9.802;2023-05-10T16:57:57;1.80;;;1.50;;
7211;SDS011;3647;48.792;9.802;2023-05-10T17:00:25;2.67;;;1.75;;
7211;SDS011;3647;48.792;9.802;2023-05-10T17:02:52;3.38;;;1.48;;
7211;SDS011;3647;48.792;9.802;2023-05-10T17:05:19;2.53;;;1.60;;
7211;SDS011;3647;48.792;9.802;2023-05-10T17:07:45;3.88;;;1.50;;
7211;SDS011;3647;48.792;9.802;2023-05-10T17:10:14;2.10;;;1.50;;
7211;SDS011;3647;48.792;9.802;2023-05-10T17:12:41;1.48;;;1.27;;
7211;SDS011;3647;48.792;9.802;2023-05-10T17:15:08;1.83;;;1.50;;
7211;SDS011;3647;48.792;9.802;2023-05-10T17:17:36;1.77;;;1.67;;
7211;SDS011;3647;48.792;9.802;2023-05-10T17:20:03;1.58;;;1.25;;
7211;SDS011;3647;48.792;9.802;2023-05-10T17:22:31;1.55;;;1.42;;
7211;SDS011;3647;48.792;9.802;2023-05-10T17:24:58;1.42;;;1.20;;
7211;SDS011;3647;48.792;9.802;2023-05-10T17:27:26;3.58;;;1.52;;
7211;SDS011;3647;48.792;9.802;2023-05-10T17:29:54;1.85;;;1.20;;
7211;SDS011;3647;48.792;9.802;2023-05-10T17:32:21;1.60;;;1.50;;
7211;SDS011;3647;48.792;9.802;2023-05-10T17:34:48;2.75;;;1.63;;
7211;SDS011;3647;48.792;9.802;2023-05-10T17:37:15;1.30;;;1.20;;
7211;SDS011;3647;48.792;9.802;2023-05-10T17:39:42;1.63;;;1.40;;
7211;SDS011;3647;48.792;9.802;2023-05-10T17:42:09;1.20;;;1.10;;
7211;SDS011;3647;48.792;9.802;2023-05-10T17:44:38;1.70;;;1.52;;
7211;SDS011;3647;48.792;9.802;2023-05-10T17:47:04;3.83;;;1.80;;
7211;SDS011;3647;48.792;9.802;2023-05-10T17:49:31;1.50;;;1.40;;
7211;SDS011;3647;48.792;9.802;2023-05-10T17:51:58;2.78;;;1.42;;
7211;SDS011;3647;48.792;9.802;2023-05-10T17:54:25;1.38;;;1.15;;
7211;SDS011;3647;48.792;9.802;2023-05-10T17:56:52;1.50;;;1.40;;
7211;SDS011;3647;48.792;9.802;2023-05-10T17:59:18;1.25;;;1.20;;
7211;SDS011;3647;48.792;9.802;2023-05-10T18:01:47;2.22;;;1.55;;
7211;SDS011;3647;48.792;9.802;2023-05-10T18:04:14;1.77;;;1.63;;
7211;SDS011;3647;48.792;9.802;2023-05-10T18:06:40;1.60;;;1.50;;
7211;SDS011;3647;48.792;9.802;2023-05-10T18:09:07;2.17;;;1.55;;
7211;SDS011;3647;48.792;9.802;2023-05-10T18:11:35;2.00;;;1.80;;
7211;SDS011;3647;48.792;9.802;2023-05-10T18:14:02;2.17;;;1.75;;
7211;SDS011;3647;48.792;9.802;2023-05-10T18:16:29;1.52;;;1.42;;
7211;SDS011;3647;48.792;9.802;2023-05-10T18:18:58;2.40;;;1.70;;
7211;SDS011;3647;48.792;9.802;2023-05-10T18:21:25;1.30;;;1.20;;
7211;SDS011;3647;48.792;9.802;2023-05-10T18:23:52;6.53;;;1.80;;
7211;SDS011;3647;48.792;9.802;2023-05-10T18:26:19;1.80;;;1.70;;
7211;SDS011;3647;48.792;9.802;2023-05-10T18:28:46;1.50;;;1.38;;
7211;SDS011;3647;48.792;9.802;2023-05-10T18:31:13;2.45;;;1.40;;
7211;SDS011;3647;48.792;9.802;2023-05-10T18:33:40;1.92;;;1.30;;
7211;SDS011;3647;48.792;9.802;2023-05-10T18:36:08;2.90;;;1.67;;
7211;SDS011;3647;48.792;9.802;2023-05-10T18:38:35;2.83;;;1.48;;
7211;SDS011;3647;48.792;9.802;2023-05-10T18:41:02;3.58;;;3.28;;
7211;SDS011;3647;48.792;9.802;2023-05-10T18:43:29;1.67;;;1.58;;
7211;SDS011;3647;48.792;9.802;2023-05-10T18:45:58;2.45;;;1.70;;
7211;SDS011;3647;48.792;9.802;2023-05-10T18:48:24;4.32;;;3.05;;
7211;SDS011;3647;48.792;9.802;2023-05-10T18:50:51;2.72;;;2.53;;
7211;SDS011;3647;48.792;9.802;2023-05-10T18:53:20;5.65;;;3.40;;
7211;SDS011;3647;48.792;9.802;2023-05-10T18:55:51;3.40;;;2.97;;
7211;SDS011;3647;48.792;9.802;2023-05-10T18:58:21;1.98;;;1.77;;
7211;SDS011;3647;48.792;9.802;2023-05-10T19:00:50;2.97;;;1.73;;
7211;SDS011;3647;48.792;9.802;2023-05-10T19:03:17;2.10;;;1.92;;
7211;SDS011;3647;48.792;9.802;2023-05-10T19:05:45;2.10;;;1.90;;
7211;SDS011;3647;48.792;9.802;2023-05-10T19:08:12;2.42;;;1.88;;
7211;SDS011;3647;48.792;9.802;2023-05-10T19:10:41;2.55;;;2.15;;
7211;SDS011;3647;48.792;9.802;2023-05-10T19:13:08;2.30;;;2.10;;
7211;SDS011;3647;48.792;9.802;2023-05-10T19:15:36;1.80;;;1.70;;
7211;SDS011;3647;48.792;9.802;2023-05-10T19:18:04;3.03;;;1.80;;
7211;SDS011;3647;48.792;9.802;2023-05-10T19:20:30;3.13;;;2.10;;
7211;SDS011;3647;48.792;9.802;2023-05-10T19:22:58;1.80;;;1.70;;
7211;SDS011;3647;48.792;9.802;2023-05-10T19:25:25;4.57;;;2.15;;
7211;SDS011;3647;48.792;9.802;2023-05-10T19:27:54;3.88;;;1.90;;
7211;SDS011;3647;48.792;9.802;2023-05-10T19:30:22;3.87;;;2.03;;
7211;SDS011;3647;48.792;9.802;2023-05-10T19:32:49;4.82;;;2.33;;
7211;SDS011;3647;48.792;9.802;2023-05-10T19:35:16;2.87;;;2.27;;
7211;SDS011;3647;48.792;9.802;2023-05-10T19:37:43;2.22;;;2.03;;
7211;SDS011;3647;48.792;9.802;2023-05-10T19:40:11;2.50;;;2.30;;
7211;SDS011;3647;48.792;9.802;2023-05-10T19:42:39;4.50;;;2.20;;
7211;SDS011;3647;48.792;9.802;2023-05-10T19:45:08;2.20;;;2.10;;
7211;SDS011;3647;48.792;9.802;2023-05-10T19:47:36;2.70;;;2.27;;